sensor_id;sensor_type;location;lat;lon;timestamp;temperature;humidity
74384;DHT22;62824;52.994;-3.936;2023-04-07T00:00:32;5.70;99.90
74384;DHT22;62824;52.994;-3.936;2023-04-07T00:02:58;5.70;99.90
74384;DHT22;62824;52.994;-3.936;2023-04-07T00:05:26;5.70;99.90
74384;DHT22;62824;52.994;-3.936;2023-04-07T00:07:52;5.70;99.90
74384;DHT22;62824;52.994;-3.936;2023-04-07T00:10:18;5.70;99.90
74384;DHT22;62824;52.994;-3.936;2023-04-07T00:12:44;5.80;99.90
74384;DHT22;62824;52.994;-3.936;2023-04-07T00:15:09;5.80;99.90
74384;DHT22;62824;52.994;-3.936;2023-04-07T00:17:35;5.80;99.90
74384;DHT22;62824;52.994;-3.936;2023-04-07T00:20:01;5.80;99.90
74384;DHT22;62824;52.994;-3.936;2023-04-07T00:22:27;5.70;99.90
74384;DHT22;62824;52.994;-3.936;2023-04-07T00:24:53;5.80;99.90
74384;DHT22;62824;52.994;-3.936;2023-04-07T00:27:18;5.80;99.90
74384;DHT22;62824;52.994;-3.936;2023-04-07T00:29:44;5.80;99.90
74384;DHT22;62824;52.994;-3.936;2023-04-07T00:32:11;5.90;99.90
74384;DHT22;62824;52.994;-3.936;2023-04-07T00:34:37;5.90;99.90
74384;DHT22;62824;52.994;-3.936;2023-04-07T00:37:03;5.90;99.90
74384;DHT22;62824;52.994;-3.936;2023-04-07T00:39:31;5.80;99.90
74384;DHT22;62824;52.994;-3.936;2023-04-07T00:41:57;5.70;99.90
74384;DHT22;62824;52.994;-3.936;2023-04-07T00:44:23;5.60;99.90
74384;DHT22;62824;52.994;-3.936;2023-04-07T00:46:49;5.60;99.90
74384;DHT22;62824;52.994;-3.936;2023-04-07T00:49:15;5.60;99.90
74384;DHT22;62824;52.994;-3.936;2023-04-07T00:51:42;5.60;99.90
74384;DHT22;62824;52.994;-3.936;2023-04-07T00:54:09;5.60;99.90
74384;DHT22;62824;52.994;-3.936;2023-04-07T00:56:35;5.60;99.90
74384;DHT22;62824;52.994;-3.936;2023-04-07T00:59:03;5.60;99.90
74384;DHT22;62824;52.994;-3.936;2023-04-07T01:01:36;5.50;99.90
74384;DHT22;62824;52.994;-3.936;2023-04-07T01:04:08;5.60;99.90
74384;DHT22;62824;52.994;-3.936;2023-04-07T01:06:38;5.60;99.90
74384;DHT22;62824;52.994;-3.936;2023-04-07T01:09:11;5.60;99.90
74384;DHT22;62824;52.994;-3.936;2023-04-07T01:11:53;5.60;99.90
74384;DHT22;62824;52.994;-3.936;2023-04-07T01:14:21;5.50;99.90
74384;DHT22;62824;52.994;-3.936;2023-04-07T01:16:51;5.40;99.90
74384;DHT22;62824;52.994;-3.936;2023-04-07T01:19:36;5.30;99.90
74384;DHT22;62824;52.994;-3.936;2023-04-07T01:22:11;5.30;99.90
74384;DHT22;62824;52.994;-3.936;2023-04-07T01:27:39;5.10;99.90
74384;DHT22;62824;52.994;-3.936;2023-04-07T01:30:10;5.10;99.90
74384;DHT22;62824;52.994;-3.936;2023-04-07T01:32:39;5.10;99.90
74384;DHT22;62824;52.994;-3.936;2023-04-07T01:35:08;5.10;99.90
74384;DHT22;62824;52.994;-3.936;2023-04-07T01:37:35;5.20;99.90
74384;DHT22;62824;52.994;-3.936;2023-04-07T01:40:05;5.20;99.90
74384;DHT22;62824;52.994;-3.936;2023-04-07T01:42:33;5.30;99.90
74384;DHT22;62824;52.994;-3.936;2023-04-07T01:45:00;5.30;99.90
74384;DHT22;62824;52.994;-3.936;2023-04-07T01:47:28;5.30;99.90
74384;DHT22;62824;52.994;-3.936;2023-04-07T01:50:00;5.30;99.90
74384;DHT22;62824;52.994;-3.936;2023-04-07T01:52:29;5.40;99.90
74384;DHT22;62824;52.994;-3.936;2023-04-07T01:54:55;5.50;99.90
74384;DHT22;62824;52.994;-3.936;2023-04-07T01:57:22;5.60;99.90
74384;DHT22;62824;52.994;-3.936;2023-04-07T01:59:48;5.60;99.90
74384;DHT22;62824;52.994;-3.936;2023-04-07T02:02:13;5.50;99.90
74384;DHT22;62824;52.994;-3.936;2023-04-07T02:04:48;5.40;99.90
74384;DHT22;62824;52.994;-3.936;2023-04-07T02:07:19;5.30;99.90
74384;DHT22;62824;52.994;-3.936;2023-04-07T02:09:47;5.20;99.90
74384;DHT22;62824;52.994;-3.936;2023-04-07T02:12:15;5.10;99.90
74384;DHT22;62824;52.994;-3.936;2023-04-07T02:14:42;5.10;99.90
74384;DHT22;62824;52.994;-3.936;2023-04-07T02:17:09;5.10;99.90
74384;DHT22;62824;52.994;-3.936;2023-04-07T02:19:36;5.10;99.90
74384;DHT22;62824;52.994;-3.936;2023-04-07T02:22:05;5.10;99.90
74384;DHT22;62824;52.994;-3.936;2023-04-07T02:24:32;5.10;99.90
74384;DHT22;62824;52.994;-3.936;2023-04-07T02:26:58;5.10;99.90
74384;DHT22;62824;52.994;-3.936;2023-04-07T02:29:26;5.20;99.90
74384;DHT22;62824;52.994;-3.936;2023-04-07T02:31:52;5.20;99.90
74384;DHT22;62824;52.994;-3.936;2023-04-07T02:34:18;5.10;99.90
74384;DHT22;62824;52.994;-3.936;2023-04-07T02:36:43;5.00;99.90
74384;DHT22;62824;52.994;-3.936;2023-04-07T02:39:09;5.00;99.90
74384;DHT22;62824;52.994;-3.936;2023-04-07T02:41:35;5.00;99.90
74384;DHT22;62824;52.994;-3.936;2023-04-07T02:44:01;5.00;99.90
74384;DHT22;62824;52.994;-3.936;2023-04-07T02:49:43;5.10;99.90
74384;DHT22;62824;52.994;-3.936;2023-04-07T02:52:09;5.10;99.90
74384;DHT22;62824;52.994;-3.936;2023-04-07T02:54:34;5.10;99.90
74384;DHT22;62824;52.994;-3.936;2023-04-07T02:57:01;5.10;99.90
74384;DHT22;62824;52.994;-3.936;2023-04-07T02:59:26;5.10;99.90
74384;DHT22;62824;52.994;-3.936;2023-04-07T03:01:52;5.00;99.90
74384;DHT22;62824;52.994;-3.936;2023-04-07T03:04:18;5.00;99.90
74384;DHT22;62824;52.994;-3.936;2023-04-07T03:06:44;5.00;99.90
74384;DHT22;62824;52.994;-3.936;2023-04-07T03:09:10;5.00;99.90
74384;DHT22;62824;52.994;-3.936;2023-04-07T03:11:36;5.00;99.90
74384;DHT22;62824;52.994;-3.936;2023-04-07T03:14:02;5.00;99.90
74384;DHT22;62824;52.994;-3.936;2023-04-07T03:16:27;5.00;99.90
74384;DHT22;62824;52.994;-3.936;2023-04-07T03:18:53;5.00;99.90
74384;DHT22;62824;52.994;-3.936;2023-04-07T03:21:20;5.10;99.90
74384;DHT22;62824;52.994;-3.936;2023-04-07T03:23:45;5.10;99.90
74384;DHT22;62824;52.994;-3.936;2023-04-07T03:26:11;4.90;99.90
74384;DHT22;62824;52.994;-3.936;2023-04-07T03:28:37;4.80;99.90
74384;DHT22;62824;52.994;-3.936;2023-04-07T03:31:03;4.70;99.90
74384;DHT22;62824;52.994;-3.936;2023-04-07T03:33:28;4.70;99.90
74384;DHT22;62824;52.994;-3.936;2023-04-07T03:35:54;4.80;99.90
74384;DHT22;62824;52.994;-3.936;2023-04-07T03:38:20;4.80;99.90
74384;DHT22;62824;52.994;-3.936;2023-04-07T03:40:46;4.90;99.90
74384;DHT22;62824;52.994;-3.936;2023-04-07T03:43:12;4.80;99.90
74384;DHT22;62824;52.994;-3.936;2023-04-07T03:45:40;4.80;99.90
74384;DHT22;62824;52.994;-3.936;2023-04-07T03:48:07;4.90;99.90
74384;DHT22;62824;52.994;-3.936;2023-04-07T03:50:37;4.90;99.90
74384;DHT22;62824;52.994;-3.936;2023-04-07T03:53:03;4.90;99.90
74384;DHT22;62824;52.994;-3.936;2023-04-07T03:55:29;4.80;99.90
74384;DHT22;62824;52.994;-3.936;2023-04-07T03:57:55;4.80;99.90
74384;DHT22;62824;52.994;-3.936;2023-04-07T04:00:21;4.80;99.90
74384;DHT22;62824;52.994;-3.936;2023-04-07T04:02:47;4.70;99.90
74384;DHT22;62824;52.994;-3.936;2023-04-07T04:05:13;4.70;99.90
74384;DHT22;62824;52.994;-3.936;2023-04-07T04:07:38;4.70;99.90
74384;DHT22;62824;52.994;-3.936;2023-04-07T04:10:05;4.80;99.90
74384;DHT22;62824;52.994;-3.936;2023-04-07T04:12:31;4.80;99.90
74384;DHT22;62824;52.994;-3.936;2023-04-07T04:14:57;4.80;99.90
74384;DHT22;62824;52.994;-3.936;2023-04-07T04:17:23;4.90;99.90
74384;DHT22;62824;52.994;-3.936;2023-04-07T04:19:50;4.90;99.90
74384;DHT22;62824;52.994;-3.936;2023-04-07T04:22:16;4.90;99.90
74384;DHT22;62824;52.994;-3.936;2023-04-07T04:24:42;4.90;99.90
74384;DHT22;62824;52.994;-3.936;2023-04-07T04:27:08;4.90;99.90
74384;DHT22;62824;52.994;-3.936;2023-04-07T04:29:33;4.90;99.90
74384;DHT22;62824;52.994;-3.936;2023-04-07T04:31:59;4.80;99.90
74384;DHT22;62824;52.994;-3.936;2023-04-07T04:34:25;4.70;99.90
74384;DHT22;62824;52.994;-3.936;2023-04-07T04:36:52;4.70;99.90
74384;DHT22;62824;52.994;-3.936;2023-04-07T04:39:17;4.70;99.90
74384;DHT22;62824;52.994;-3.936;2023-04-07T04:42:01;4.70;99.90
74384;DHT22;62824;52.994;-3.936;2023-04-07T04:44:28;4.70;99.90
74384;DHT22;62824;52.994;-3.936;2023-04-07T04:46:55;4.70;99.90
74384;DHT22;62824;52.994;-3.936;2023-04-07T04:49:21;4.80;99.90
74384;DHT22;62824;52.994;-3.936;2023-04-07T04:51:47;4.70;99.90
74384;DHT22;62824;52.994;-3.936;2023-04-07T04:54:12;4.70;99.90
74384;DHT22;62824;52.994;-3.936;2023-04-07T04:56:38;4.60;99.90
74384;DHT22;62824;52.994;-3.936;2023-04-07T04:59:04;4.60;99.90
74384;DHT22;62824;52.994;-3.936;2023-04-07T05:01:30;4.50;99.90
74384;DHT22;62824;52.994;-3.936;2023-04-07T05:03:56;4.50;99.90
74384;DHT22;62824;52.994;-3.936;2023-04-07T05:06:22;4.40;99.90
74384;DHT22;62824;52.994;-3.936;2023-04-07T05:08:47;4.40;99.90
74384;DHT22;62824;52.994;-3.936;2023-04-07T05:11:13;4.20;99.90
74384;DHT22;62824;52.994;-3.936;2023-04-07T05:13:39;4.20;99.90
74384;DHT22;62824;52.994;-3.936;2023-04-07T05:16:05;4.20;99.90
74384;DHT22;62824;52.994;-3.936;2023-04-07T05:18:31;4.30;99.90
74384;DHT22;62824;52.994;-3.936;2023-04-07T05:20:57;4.40;99.90
74384;DHT22;62824;52.994;-3.936;2023-04-07T05:23:23;4.50;99.90
74384;DHT22;62824;52.994;-3.936;2023-04-07T05:29:23;4.50;99.90
74384;DHT22;62824;52.994;-3.936;2023-04-07T05:31:49;4.50;99.90
74384;DHT22;62824;52.994;-3.936;2023-04-07T05:34:15;4.60;99.90
74384;DHT22;62824;52.994;-3.936;2023-04-07T05:36:40;4.60;99.90
74384;DHT22;62824;52.994;-3.936;2023-04-07T05:39:06;4.70;99.90
74384;DHT22;62824;52.994;-3.936;2023-04-07T05:41:32;4.80;99.90
74384;DHT22;62824;52.994;-3.936;2023-04-07T05:43:58;4.70;99.90
74384;DHT22;62824;52.994;-3.936;2023-04-07T05:46:24;4.70;99.90
74384;DHT22;62824;52.994;-3.936;2023-04-07T05:48:49;4.70;99.90
74384;DHT22;62824;52.994;-3.936;2023-04-07T05:51:16;4.70;99.90
74384;DHT22;62824;52.994;-3.936;2023-04-07T05:53:41;4.80;99.90
74384;DHT22;62824;52.994;-3.936;2023-04-07T05:56:07;4.90;99.90
74384;DHT22;62824;52.994;-3.936;2023-04-07T05:58:33;5.00;99.90
74384;DHT22;62824;52.994;-3.936;2023-04-07T06:00:59;5.00;99.90
74384;DHT22;62824;52.994;-3.936;2023-04-07T06:03:24;5.00;99.90
74384;DHT22;62824;52.994;-3.936;2023-04-07T06:05:50;5.00;99.90
74384;DHT22;62824;52.994;-3.936;2023-04-07T06:08:16;5.00;99.90
74384;DHT22;62824;52.994;-3.936;2023-04-07T06:10:42;5.00;99.90
74384;DHT22;62824;52.994;-3.936;2023-04-07T06:13:09;5.00;99.90
74384;DHT22;62824;52.994;-3.936;2023-04-07T06:18:44;5.10;99.90
74384;DHT22;62824;52.994;-3.936;2023-04-07T06:21:09;5.30;99.90
74384;DHT22;62824;52.994;-3.936;2023-04-07T06:23:35;5.30;99.60
74384;DHT22;62824;52.994;-3.936;2023-04-07T06:26:01;5.40;99.70
74384;DHT22;62824;52.994;-3.936;2023-04-07T06:28:27;5.30;99.90
74384;DHT22;62824;52.994;-3.936;2023-04-07T06:30:52;5.30;99.90
74384;DHT22;62824;52.994;-3.936;2023-04-07T06:33:18;5.20;99.90
74384;DHT22;62824;52.994;-3.936;2023-04-07T06:35:48;5.20;99.90
74384;DHT22;62824;52.994;-3.936;2023-04-07T06:38:14;5.10;99.90
74384;DHT22;62824;52.994;-3.936;2023-04-07T06:40:40;5.10;99.90
74384;DHT22;62824;52.994;-3.936;2023-04-07T06:43:06;5.10;99.90
74384;DHT22;62824;52.994;-3.936;2023-04-07T06:45:31;5.20;99.90
74384;DHT22;62824;52.994;-3.936;2023-04-07T06:47:57;5.20;99.90
74384;DHT22;62824;52.994;-3.936;2023-04-07T06:50:23;5.30;99.90
74384;DHT22;62824;52.994;-3.936;2023-04-07T06:52:49;5.30;99.90
74384;DHT22;62824;52.994;-3.936;2023-04-07T06:55:15;5.30;99.90
74384;DHT22;62824;52.994;-3.936;2023-04-07T06:57:40;5.30;99.90
74384;DHT22;62824;52.994;-3.936;2023-04-07T07:00:07;5.20;99.90
74384;DHT22;62824;52.994;-3.936;2023-04-07T07:02:33;5.50;99.90
74384;DHT22;62824;52.994;-3.936;2023-04-07T07:08:12;6.50;99.00
74384;DHT22;62824;52.994;-3.936;2023-04-07T07:10:38;7.00;96.20
74384;DHT22;62824;52.994;-3.936;2023-04-07T07:13:04;7.30;95.80
74384;DHT22;62824;52.994;-3.936;2023-04-07T07:15:29;7.60;94.50
74384;DHT22;62824;52.994;-3.936;2023-04-07T07:17:55;8.20;92.70
74384;DHT22;62824;52.994;-3.936;2023-04-07T07:20:21;8.40;90.00
74384;DHT22;62824;52.994;-3.936;2023-04-07T07:22:48;8.80;87.60
74384;DHT22;62824;52.994;-3.936;2023-04-07T07:25:15;9.30;83.80
74384;DHT22;62824;52.994;-3.936;2023-04-07T07:27:41;9.90;76.20
74384;DHT22;62824;52.994;-3.936;2023-04-07T07:30:07;10.10;72.00
74384;DHT22;62824;52.994;-3.936;2023-04-07T07:32:33;10.40;68.60
74384;DHT22;62824;52.994;-3.936;2023-04-07T07:34:58;10.80;64.20
74384;DHT22;62824;52.994;-3.936;2023-04-07T07:37:24;11.60;55.30
74384;DHT22;62824;52.994;-3.936;2023-04-07T07:39:50;11.80;50.10
74384;DHT22;62824;52.994;-3.936;2023-04-07T07:42:17;12.50;48.60
74384;DHT22;62824;52.994;-3.936;2023-04-07T07:44:43;12.50;45.30
74384;DHT22;62824;52.994;-3.936;2023-04-07T07:47:08;12.80;45.40
74384;DHT22;62824;52.994;-3.936;2023-04-07T07:49:34;12.90;45.30
74384;DHT22;62824;52.994;-3.936;2023-04-07T07:52:01;13.10;44.40
74384;DHT22;62824;52.994;-3.936;2023-04-07T07:54:26;13.50;43.90
74384;DHT22;62824;52.994;-3.936;2023-04-07T07:56:52;13.80;42.70
74384;DHT22;62824;52.994;-3.936;2023-04-07T07:59:18;14.00;41.00
74384;DHT22;62824;52.994;-3.936;2023-04-07T08:01:44;14.60;40.20
74384;DHT22;62824;52.994;-3.936;2023-04-07T08:04:09;15.10;36.50
74384;DHT22;62824;52.994;-3.936;2023-04-07T08:06:35;15.50;34.80
74384;DHT22;62824;52.994;-3.936;2023-04-07T08:09:02;15.80;32.60
74384;DHT22;62824;52.994;-3.936;2023-04-07T08:11:28;15.80;31.90
74384;DHT22;62824;52.994;-3.936;2023-04-07T08:17:10;16.10;31.70
74384;DHT22;62824;52.994;-3.936;2023-04-07T08:19:37;16.50;30.00
74384;DHT22;62824;52.994;-3.936;2023-04-07T08:22:02;16.70;29.70
74384;DHT22;62824;52.994;-3.936;2023-04-07T08:24:28;16.80;28.90
74384;DHT22;62824;52.994;-3.936;2023-04-07T08:26:54;16.60;29.10
74384;DHT22;62824;52.994;-3.936;2023-04-07T08:29:20;16.60;29.60
74384;DHT22;62824;52.994;-3.936;2023-04-07T08:31:46;16.50;30.00
74384;DHT22;62824;52.994;-3.936;2023-04-07T08:34:12;16.80;29.20
74384;DHT22;62824;52.994;-3.936;2023-04-07T08:36:38;16.50;28.90
74384;DHT22;62824;52.994;-3.936;2023-04-07T08:39:04;16.10;28.80
74384;DHT22;62824;52.994;-3.936;2023-04-07T08:41:36;15.00;30.90
74384;DHT22;62824;52.994;-3.936;2023-04-07T08:44:02;14.30;35.80
74384;DHT22;62824;52.994;-3.936;2023-04-07T08:46:29;14.00;37.60
74384;DHT22;62824;52.994;-3.936;2023-04-07T08:48:56;13.70;40.00
74384;DHT22;62824;52.994;-3.936;2023-04-07T08:51:30;14.00;39.60
74384;DHT22;62824;52.994;-3.936;2023-04-07T08:54:09;14.10;39.10
74384;DHT22;62824;52.994;-3.936;2023-04-07T08:56:39;14.10;36.40
74384;DHT22;62824;52.994;-3.936;2023-04-07T08:59:06;13.60;35.40
74384;DHT22;62824;52.994;-3.936;2023-04-07T09:01:34;13.00;36.60
74384;DHT22;62824;52.994;-3.936;2023-04-07T09:07:43;12.90;43.80
74384;DHT22;62824;52.994;-3.936;2023-04-07T09:10:09;12.90;43.10
74384;DHT22;62824;52.994;-3.936;2023-04-07T09:12:35;12.90;42.60
74384;DHT22;62824;52.994;-3.936;2023-04-07T09:15:01;13.00;42.90
74384;DHT22;62824;52.994;-3.936;2023-04-07T09:17:28;13.30;41.30
74384;DHT22;62824;52.994;-3.936;2023-04-07T09:19:58;13.60;40.40
74384;DHT22;62824;52.994;-3.936;2023-04-07T09:22:37;13.90;35.50
74384;DHT22;62824;52.994;-3.936;2023-04-07T09:25:21;14.20;37.10
74384;DHT22;62824;52.994;-3.936;2023-04-07T09:28:02;14.00;36.60
74384;DHT22;62824;52.994;-3.936;2023-04-07T09:30:29;13.90;37.00
74384;DHT22;62824;52.994;-3.936;2023-04-07T09:32:56;14.10;38.50
74384;DHT22;62824;52.994;-3.936;2023-04-07T09:35:22;14.50;35.90
74384;DHT22;62824;52.994;-3.936;2023-04-07T09:38:06;14.90;34.10
74384;DHT22;62824;52.994;-3.936;2023-04-07T09:40:32;14.70;34.40
74384;DHT22;62824;52.994;-3.936;2023-04-07T09:42:59;15.00;34.30
74384;DHT22;62824;52.994;-3.936;2023-04-07T09:45:28;14.50;31.30
74384;DHT22;62824;52.994;-3.936;2023-04-07T09:47:56;14.40;32.90
74384;DHT22;62824;52.994;-3.936;2023-04-07T09:50:39;14.80;32.80
74384;DHT22;62824;52.994;-3.936;2023-04-07T09:53:05;15.20;31.80
74384;DHT22;62824;52.994;-3.936;2023-04-07T09:55:32;15.20;32.10
74384;DHT22;62824;52.994;-3.936;2023-04-07T09:57:59;15.60;30.70
74384;DHT22;62824;52.994;-3.936;2023-04-07T10:00:25;15.60;29.80
74384;DHT22;62824;52.994;-3.936;2023-04-07T10:02:51;15.60;31.60
74384;DHT22;62824;52.994;-3.936;2023-04-07T10:05:18;16.70;29.30
74384;DHT22;62824;52.994;-3.936;2023-04-07T10:07:46;17.20;27.50
74384;DHT22;62824;52.994;-3.936;2023-04-07T10:10:12;18.10;26.40
74384;DHT22;62824;52.994;-3.936;2023-04-07T10:12:38;18.70;24.50
74384;DHT22;62824;52.994;-3.936;2023-04-07T10:15:06;19.50;23.00
74384;DHT22;62824;52.994;-3.936;2023-04-07T10:17:34;19.20;22.50
74384;DHT22;62824;52.994;-3.936;2023-04-07T10:20:01;19.80;22.50
74384;DHT22;62824;52.994;-3.936;2023-04-07T10:22:29;20.50;20.80
74384;DHT22;62824;52.994;-3.936;2023-04-07T10:25:08;20.40;20.50
74384;DHT22;62824;52.994;-3.936;2023-04-07T10:27:42;20.60;19.40
74384;DHT22;62824;52.994;-3.936;2023-04-07T10:30:29;20.70;19.30
74384;DHT22;62824;52.994;-3.936;2023-04-07T10:32:55;21.20;18.60
74384;DHT22;62824;52.994;-3.936;2023-04-07T10:35:22;22.10;17.90
74384;DHT22;62824;52.994;-3.936;2023-04-07T10:47:05;23.00;15.00
74384;DHT22;62824;52.994;-3.936;2023-04-07T10:49:32;23.20;13.50
74384;DHT22;62824;52.994;-3.936;2023-04-07T10:54:40;21.50;15.00
74384;DHT22;62824;52.994;-3.936;2023-04-07T10:57:13;21.80;15.90
74384;DHT22;62824;52.994;-3.936;2023-04-07T11:02:40;21.90;14.50
74384;DHT22;62824;52.994;-3.936;2023-04-07T11:05:06;21.60;14.40
74384;DHT22;62824;52.994;-3.936;2023-04-07T11:07:46;21.80;15.40
74384;DHT22;62824;52.994;-3.936;2023-04-07T11:10:14;21.40;14.70
74384;DHT22;62824;52.994;-3.936;2023-04-07T11:12:42;20.70;15.80
74384;DHT22;62824;52.994;-3.936;2023-04-07T11:15:21;21.40;15.80
74384;DHT22;62824;52.994;-3.936;2023-04-07T11:18:16;22.20;14.00
74384;DHT22;62824;52.994;-3.936;2023-04-07T11:20:55;22.10;13.70
74384;DHT22;62824;52.994;-3.936;2023-04-07T11:23:23;21.80;14.30
74384;DHT22;62824;52.994;-3.936;2023-04-07T11:25:59;21.70;15.20
74384;DHT22;62824;52.994;-3.936;2023-04-07T11:28:26;22.30;14.40
74384;DHT22;62824;52.994;-3.936;2023-04-07T11:30:53;22.50;13.10
74384;DHT22;62824;52.994;-3.936;2023-04-07T11:36:49;24.90;11.80
74384;DHT22;62824;52.994;-3.936;2023-04-07T11:39:20;25.60;10.60
74384;DHT22;62824;52.994;-3.936;2023-04-07T11:41:47;25.60;10.40
74384;DHT22;62824;52.994;-3.936;2023-04-07T11:44:13;26.00;9.80
74384;DHT22;62824;52.994;-3.936;2023-04-07T11:46:59;25.70;9.70
74384;DHT22;62824;52.994;-3.936;2023-04-07T11:49:26;26.30;8.90
74384;DHT22;62824;52.994;-3.936;2023-04-07T11:52:05;26.40;9.00
74384;DHT22;62824;52.994;-3.936;2023-04-07T11:54:58;25.10;8.90
74384;DHT22;62824;52.994;-3.936;2023-04-07T11:57:27;24.10;10.00
74384;DHT22;62824;52.994;-3.936;2023-04-07T12:00:13;22.80;11.40
74384;DHT22;62824;52.994;-3.936;2023-04-07T12:02:40;21.80;12.70
74384;DHT22;62824;52.994;-3.936;2023-04-07T12:05:06;21.50;13.90
74384;DHT22;62824;52.994;-3.936;2023-04-07T12:07:35;21.00;13.50
74384;DHT22;62824;52.994;-3.936;2023-04-07T12:10:21;20.40;14.70
74384;DHT22;62824;52.994;-3.936;2023-04-07T12:12:47;20.10;14.90
74384;DHT22;62824;52.994;-3.936;2023-04-07T12:15:14;20.20;15.70
74384;DHT22;62824;52.994;-3.936;2023-04-07T12:17:45;19.80;15.10
74384;DHT22;62824;52.994;-3.936;2023-04-07T12:20:12;19.50;16.20
74384;DHT22;62824;52.994;-3.936;2023-04-07T12:22:38;19.20;15.60
74384;DHT22;62824;52.994;-3.936;2023-04-07T12:25:04;18.70;16.90
74384;DHT22;62824;52.994;-3.936;2023-04-07T12:27:30;18.70;18.00
74384;DHT22;62824;52.994;-3.936;2023-04-07T12:29:56;18.80;17.30
74384;DHT22;62824;52.994;-3.936;2023-04-07T12:32:22;18.80;17.40
74384;DHT22;62824;52.994;-3.936;2023-04-07T12:34:48;18.20;18.00
74384;DHT22;62824;52.994;-3.936;2023-04-07T12:37:14;17.40;19.50
74384;DHT22;62824;52.994;-3.936;2023-04-07T12:39:39;16.90;20.20
74384;DHT22;62824;52.994;-3.936;2023-04-07T12:42:05;16.70;20.50
74384;DHT22;62824;52.994;-3.936;2023-04-07T12:44:32;16.80;21.20
74384;DHT22;62824;52.994;-3.936;2023-04-07T12:46:58;16.80;21.10
74384;DHT22;62824;52.994;-3.936;2023-04-07T12:49:24;17.00;21.10
74384;DHT22;62824;52.994;-3.936;2023-04-07T12:51:50;17.80;20.60
74384;DHT22;62824;52.994;-3.936;2023-04-07T12:54:17;18.70;19.20
74384;DHT22;62824;52.994;-3.936;2023-04-07T12:56:43;19.70;18.00
74384;DHT22;62824;52.994;-3.936;2023-04-07T12:59:08;20.20;15.90
74384;DHT22;62824;52.994;-3.936;2023-04-07T13:01:34;20.50;15.50
74384;DHT22;62824;52.994;-3.936;2023-04-07T13:04:01;21.20;14.80
74384;DHT22;62824;52.994;-3.936;2023-04-07T13:06:27;21.50;15.00
74384;DHT22;62824;52.994;-3.936;2023-04-07T13:08:53;21.50;14.50
74384;DHT22;62824;52.994;-3.936;2023-04-07T13:11:21;21.60;14.00
74384;DHT22;62824;52.994;-3.936;2023-04-07T13:13:47;21.50;13.90
74384;DHT22;62824;52.994;-3.936;2023-04-07T13:16:14;21.30;14.00
74384;DHT22;62824;52.994;-3.936;2023-04-07T13:18:39;21.10;14.30
74384;DHT22;62824;52.994;-3.936;2023-04-07T13:21:06;21.00;14.80
74384;DHT22;62824;52.994;-3.936;2023-04-07T13:23:32;20.60;14.30
74384;DHT22;62824;52.994;-3.936;2023-04-07T13:25:58;20.50;13.60
74384;DHT22;62824;52.994;-3.936;2023-04-07T13:28:24;20.50;15.30
74384;DHT22;62824;52.994;-3.936;2023-04-07T13:30:53;21.00;14.40
74384;DHT22;62824;52.994;-3.936;2023-04-07T13:36:49;21.80;13.20
74384;DHT22;62824;52.994;-3.936;2023-04-07T13:39:15;21.90;12.50
74384;DHT22;62824;52.994;-3.936;2023-04-07T13:41:41;20.20;13.80
74384;DHT22;62824;52.994;-3.936;2023-04-07T13:44:07;20.10;14.60
74384;DHT22;62824;52.994;-3.936;2023-04-07T13:46:33;20.20;14.60
74384;DHT22;62824;52.994;-3.936;2023-04-07T13:48:59;20.80;14.30
74384;DHT22;62824;52.994;-3.936;2023-04-07T13:51:25;21.10;12.90
74384;DHT22;62824;52.994;-3.936;2023-04-07T13:53:51;21.70;13.10
74384;DHT22;62824;52.994;-3.936;2023-04-07T13:56:17;22.00;12.50
74384;DHT22;62824;52.994;-3.936;2023-04-07T13:58:43;22.50;12.40
74384;DHT22;62824;52.994;-3.936;2023-04-07T14:01:09;21.90;11.70
74384;DHT22;62824;52.994;-3.936;2023-04-07T14:03:35;22.10;12.20
74384;DHT22;62824;52.994;-3.936;2023-04-07T14:06:06;22.40;12.50
74384;DHT22;62824;52.994;-3.936;2023-04-07T14:08:32;22.40;11.90
74384;DHT22;62824;52.994;-3.936;2023-04-07T14:10:58;22.70;11.80
74384;DHT22;62824;52.994;-3.936;2023-04-07T14:13:24;23.10;10.70
74384;DHT22;62824;52.994;-3.936;2023-04-07T14:15:50;23.40;10.60
74384;DHT22;62824;52.994;-3.936;2023-04-07T14:18:17;23.60;11.00
74384;DHT22;62824;52.994;-3.936;2023-04-07T14:20:43;22.70;11.60
74384;DHT22;62824;52.994;-3.936;2023-04-07T14:23:09;22.10;13.80
74384;DHT22;62824;52.994;-3.936;2023-04-07T14:25:36;22.20;13.20
74384;DHT22;62824;52.994;-3.936;2023-04-07T14:31:44;22.60;13.00
74384;DHT22;62824;52.994;-3.936;2023-04-07T14:34:13;22.90;13.60
74384;DHT22;62824;52.994;-3.936;2023-04-07T14:36:38;22.90;12.10
74384;DHT22;62824;52.994;-3.936;2023-04-07T14:39:04;23.10;12.10
74384;DHT22;62824;52.994;-3.936;2023-04-07T14:41:30;23.10;12.30
74384;DHT22;62824;52.994;-3.936;2023-04-07T14:43:56;23.30;11.70
74384;DHT22;62824;52.994;-3.936;2023-04-07T14:46:23;23.00;11.40
74384;DHT22;62824;52.994;-3.936;2023-04-07T14:48:50;22.50;12.20
74384;DHT22;62824;52.994;-3.936;2023-04-07T14:51:19;21.70;14.20
74384;DHT22;62824;52.994;-3.936;2023-04-07T14:53:46;21.00;14.70
74384;DHT22;62824;52.994;-3.936;2023-04-07T14:56:12;20.70;15.00
74384;DHT22;62824;52.994;-3.936;2023-04-07T14:58:38;21.00;14.60
74384;DHT22;62824;52.994;-3.936;2023-04-07T15:01:05;20.90;14.80
74384;DHT22;62824;52.994;-3.936;2023-04-07T15:03:31;20.70;15.00
74384;DHT22;62824;52.994;-3.936;2023-04-07T15:05:59;20.60;16.40
74384;DHT22;62824;52.994;-3.936;2023-04-07T15:08:24;20.40;17.40
74384;DHT22;62824;52.994;-3.936;2023-04-07T15:10:50;20.50;17.40
74384;DHT22;62824;52.994;-3.936;2023-04-07T15:13:16;20.50;17.80
74384;DHT22;62824;52.994;-3.936;2023-04-07T15:15:42;19.90;18.00
74384;DHT22;62824;52.994;-3.936;2023-04-07T15:18:08;19.70;19.30
74384;DHT22;62824;52.994;-3.936;2023-04-07T15:20:33;19.90;18.60
74384;DHT22;62824;52.994;-3.936;2023-04-07T15:22:59;19.40;18.10
74384;DHT22;62824;52.994;-3.936;2023-04-07T15:25:25;19.60;19.10
74384;DHT22;62824;52.994;-3.936;2023-04-07T15:31:02;19.60;17.80
74384;DHT22;62824;52.994;-3.936;2023-04-07T15:33:33;18.90;19.90
74384;DHT22;62824;52.994;-3.936;2023-04-07T15:35:58;19.10;18.70
74384;DHT22;62824;52.994;-3.936;2023-04-07T15:38:27;18.60;19.90
74384;DHT22;62824;52.994;-3.936;2023-04-07T15:40:53;18.70;19.00
74384;DHT22;62824;52.994;-3.936;2023-04-07T15:43:19;19.00;18.70
74384;DHT22;62824;52.994;-3.936;2023-04-07T15:45:46;19.40;17.70
74384;DHT22;62824;52.994;-3.936;2023-04-07T15:48:13;19.60;17.50
74384;DHT22;62824;52.994;-3.936;2023-04-07T15:50:39;19.70;17.10
74384;DHT22;62824;52.994;-3.936;2023-04-07T15:53:05;19.30;17.00
74384;DHT22;62824;52.994;-3.936;2023-04-07T15:55:33;19.30;17.80
74384;DHT22;62824;52.994;-3.936;2023-04-07T15:57:59;19.60;18.40
74384;DHT22;62824;52.994;-3.936;2023-04-07T16:00:29;20.00;17.00
74384;DHT22;62824;52.994;-3.936;2023-04-07T16:02:57;20.20;16.80
74384;DHT22;62824;52.994;-3.936;2023-04-07T16:05:22;20.00;17.80
74384;DHT22;62824;52.994;-3.936;2023-04-07T16:07:48;19.80;18.20
74384;DHT22;62824;52.994;-3.936;2023-04-07T16:10:15;19.50;18.10
74384;DHT22;62824;52.994;-3.936;2023-04-07T16:12:44;18.80;19.60
74384;DHT22;62824;52.994;-3.936;2023-04-07T16:15:11;18.90;20.50